sensor_id;sensor_type;location;lat;lon;timestamp;temperature;humidity
17154;DHT22;8692;52.164;7.558;2023-04-03T00:01:40;4.60;99.90
17154;DHT22;8692;52.164;7.558;2023-04-03T00:04:12;4.60;99.90
17154;DHT22;8692;52.164;7.558;2023-04-03T00:06:40;4.60;99.90
17154;DHT22;8692;52.164;7.558;2023-04-03T00:09:08;4.50;99.90
17154;DHT22;8692;52.164;7.558;2023-04-03T00:11:36;4.50;99.90
17154;DHT22;8692;52.164;7.558;2023-04-03T00:14:04;4.50;99.90
17154;DHT22;8692;52.164;7.558;2023-04-03T00:16:33;4.50;99.90
17154;DHT22;8692;52.164;7.558;2023-04-03T00:19:05;4.40;99.90
17154;DHT22;8692;52.164;7.558;2023-04-03T00:21:33;4.40;99.90
17154;DHT22;8692;52.164;7.558;2023-04-03T00:24:05;4.40;99.90
17154;DHT22;8692;52.164;7.558;2023-04-03T00:26:33;4.40;99.90
17154;DHT22;8692;52.164;7.558;2023-04-03T00:29:01;4.40;99.90
17154;DHT22;8692;52.164;7.558;2023-04-03T00:31:32;4.40;99.90
17154;DHT22;8692;52.164;7.558;2023-04-03T00:34:00;4.40;99.90
17154;DHT22;8692;52.164;7.558;2023-04-03T00:36:30;4.30;99.90
17154;DHT22;8692;52.164;7.558;2023-04-03T00:39:01;4.30;99.90
17154;DHT22;8692;52.164;7.558;2023-04-03T00:41:29;4.30;99.90
17154;DHT22;8692;52.164;7.558;2023-04-03T00:43:59;4.30;99.90
17154;DHT22;8692;52.164;7.558;2023-04-03T00:46:30;4.20;99.90
17154;DHT22;8692;52.164;7.558;2023-04-03T00:48:58;4.20;99.90
17154;DHT22;8692;52.164;7.558;2023-04-03T00:51:26;4.20;99.90
17154;DHT22;8692;52.164;7.558;2023-04-03T00:53:59;4.10;99.90
17154;DHT22;8692;52.164;7.558;2023-04-03T00:56:30;4.10;99.90
17154;DHT22;8692;52.164;7.558;2023-04-03T00:59:03;4.10;99.90
17154;DHT22;8692;52.164;7.558;2023-04-03T01:01:32;4.00;99.90
17154;DHT22;8692;52.164;7.558;2023-04-03T01:04:01;4.00;99.90
17154;DHT22;8692;52.164;7.558;2023-04-03T01:06:33;4.00;99.90
17154;DHT22;8692;52.164;7.558;2023-04-03T01:09:08;3.90;99.90
17154;DHT22;8692;52.164;7.558;2023-04-03T01:11:36;3.90;99.90
17154;DHT22;8692;52.164;7.558;2023-04-03T01:14:05;3.90;99.90
17154;DHT22;8692;52.164;7.558;2023-04-03T01:16:33;3.90;99.90
17154;DHT22;8692;52.164;7.558;2023-04-03T01:19:03;3.80;99.90
17154;DHT22;8692;52.164;7.558;2023-04-03T01:22:04;3.80;99.90
17154;DHT22;8692;52.164;7.558;2023-04-03T01:24:41;3.80;99.90
17154;DHT22;8692;52.164;7.558;2023-04-03T01:27:10;3.70;99.90
17154;DHT22;8692;52.164;7.558;2023-04-03T01:29:40;3.80;99.90
17154;DHT22;8692;52.164;7.558;2023-04-03T01:32:13;3.70;99.90
17154;DHT22;8692;52.164;7.558;2023-04-03T01:34:44;3.70;99.90
17154;DHT22;8692;52.164;7.558;2023-04-03T01:37:12;3.70;99.90
17154;DHT22;8692;52.164;7.558;2023-04-03T01:39:40;3.70;99.90
17154;DHT22;8692;52.164;7.558;2023-04-03T01:42:08;3.60;99.90
17154;DHT22;8692;52.164;7.558;2023-04-03T01:44:39;3.60;99.90
17154;DHT22;8692;52.164;7.558;2023-04-03T01:47:08;3.60;99.90
17154;DHT22;8692;52.164;7.558;2023-04-03T01:49:41;3.60;99.90
17154;DHT22;8692;52.164;7.558;2023-04-03T01:52:09;3.60;99.90
17154;DHT22;8692;52.164;7.558;2023-04-03T01:54:39;3.50;99.90
17154;DHT22;8692;52.164;7.558;2023-04-03T01:57:08;3.50;99.90
17154;DHT22;8692;52.164;7.558;2023-04-03T01:59:37;3.50;99.90
17154;DHT22;8692;52.164;7.558;2023-04-03T02:02:06;3.50;99.90
17154;DHT22;8692;52.164;7.558;2023-04-03T02:04:37;3.50;99.90
17154;DHT22;8692;52.164;7.558;2023-04-03T02:07:08;3.40;99.90
17154;DHT22;8692;52.164;7.558;2023-04-03T02:09:39;3.40;99.90
17154;DHT22;8692;52.164;7.558;2023-04-03T02:12:08;3.40;99.90
17154;DHT22;8692;52.164;7.558;2023-04-03T02:14:36;3.40;99.90
17154;DHT22;8692;52.164;7.558;2023-04-03T02:17:05;3.40;99.90
17154;DHT22;8692;52.164;7.558;2023-04-03T02:19:35;3.40;99.90
17154;DHT22;8692;52.164;7.558;2023-04-03T02:22:04;3.30;99.90
17154;DHT22;8692;52.164;7.558;2023-04-03T02:24:33;3.30;99.90
17154;DHT22;8692;52.164;7.558;2023-04-03T02:27:04;3.30;99.90
17154;DHT22;8692;52.164;7.558;2023-04-03T02:29:32;3.30;99.90
17154;DHT22;8692;52.164;7.558;2023-04-03T02:32:00;3.30;99.90
17154;DHT22;8692;52.164;7.558;2023-04-03T02:34:30;3.20;99.90
17154;DHT22;8692;52.164;7.558;2023-04-03T02:37:00;3.20;99.90
17154;DHT22;8692;52.164;7.558;2023-04-03T02:39:28;3.10;99.90
17154;DHT22;8692;52.164;7.558;2023-04-03T02:41:59;3.10;99.90
17154;DHT22;8692;52.164;7.558;2023-04-03T02:44:30;3.10;99.90
17154;DHT22;8692;52.164;7.558;2023-04-03T02:46:58;3.10;99.90
17154;DHT22;8692;52.164;7.558;2023-04-03T02:49:26;3.10;99.90
17154;DHT22;8692;52.164;7.558;2023-04-03T02:51:55;3.00;99.90
17154;DHT22;8692;52.164;7.558;2023-04-03T02:54:23;3.00;99.90
17154;DHT22;8692;52.164;7.558;2023-04-03T02:56:59;3.00;99.90
17154;DHT22;8692;52.164;7.558;2023-04-03T02:59:31;3.00;99.90
17154;DHT22;8692;52.164;7.558;2023-04-03T03:01:59;3.00;99.90
17154;DHT22;8692;52.164;7.558;2023-04-03T03:04:30;2.90;99.90
17154;DHT22;8692;52.164;7.558;2023-04-03T03:06:58;2.90;99.90
17154;DHT22;8692;52.164;7.558;2023-04-03T03:09:28;2.80;99.90
17154;DHT22;8692;52.164;7.558;2023-04-03T03:11:59;2.80;99.90
17154;DHT22;8692;52.164;7.558;2023-04-03T03:14:30;2.70;99.90
17154;DHT22;8692;52.164;7.558;2023-04-03T03:16:58;2.70;99.90
17154;DHT22;8692;52.164;7.558;2023-04-03T03:19:29;2.70;99.90
17154;DHT22;8692;52.164;7.558;2023-04-03T03:21:57;2.60;99.90
17154;DHT22;8692;52.164;7.558;2023-04-03T03:24:27;2.60;99.90
17154;DHT22;8692;52.164;7.558;2023-04-03T03:26:55;2.50;99.90
17154;DHT22;8692;52.164;7.558;2023-04-03T03:29:27;2.50;99.90
17154;DHT22;8692;52.164;7.558;2023-04-03T03:31:55;2.50;99.90
17154;DHT22;8692;52.164;7.558;2023-04-03T03:34:23;2.50;99.90
17154;DHT22;8692;52.164;7.558;2023-04-03T03:36:51;2.50;99.90
17154;DHT22;8692;52.164;7.558;2023-04-03T03:39:20;2.40;99.90
17154;DHT22;8692;52.164;7.558;2023-04-03T03:41:48;2.40;99.90
17154;DHT22;8692;52.164;7.558;2023-04-03T03:44:20;2.40;99.90
17154;DHT22;8692;52.164;7.558;2023-04-03T03:46:49;2.30;99.90
17154;DHT22;8692;52.164;7.558;2023-04-03T03:49:18;2.30;99.90
17154;DHT22;8692;52.164;7.558;2023-04-03T03:51:46;2.30;99.90
17154;DHT22;8692;52.164;7.558;2023-04-03T03:54:15;2.30;99.90
17154;DHT22;8692;52.164;7.558;2023-04-03T03:56:45;2.30;99.90
17154;DHT22;8692;52.164;7.558;2023-04-03T03:59:13;2.30;99.90
17154;DHT22;8692;52.164;7.558;2023-04-03T04:01:42;2.30;99.90
17154;DHT22;8692;52.164;7.558;2023-04-03T04:04:12;2.30;99.90
17154;DHT22;8692;52.164;7.558;2023-04-03T04:06:41;2.30;99.90
17154;DHT22;8692;52.164;7.558;2023-04-03T04:09:12;2.20;99.90
17154;DHT22;8692;52.164;7.558;2023-04-03T04:11:40;2.20;99.90
17154;DHT22;8692;52.164;7.558;2023-04-03T04:14:15;2.20;99.90
17154;DHT22;8692;52.164;7.558;2023-04-03T04:16:46;2.10;99.90
17154;DHT22;8692;52.164;7.558;2023-04-03T04:19:21;2.10;99.90
17154;DHT22;8692;52.164;7.558;2023-04-03T04:21:52;2.10;99.90
17154;DHT22;8692;52.164;7.558;2023-04-03T04:24:21;2.10;99.90
17154;DHT22;8692;52.164;7.558;2023-04-03T04:26:52;2.00;99.90
17154;DHT22;8692;52.164;7.558;2023-04-03T04:29:21;2.00;99.90
17154;DHT22;8692;52.164;7.558;2023-04-03T04:31:52;2.00;99.90
17154;DHT22;8692;52.164;7.558;2023-04-03T04:34:23;1.90;99.90
17154;DHT22;8692;52.164;7.558;2023-04-03T04:36:51;1.90;99.90
17154;DHT22;8692;52.164;7.558;2023-04-03T04:39:22;1.90;99.90
17154;DHT22;8692;52.164;7.558;2023-04-03T04:41:50;1.90;99.90
17154;DHT22;8692;52.164;7.558;2023-04-03T04:44:18;1.80;99.90
17154;DHT22;8692;52.164;7.558;2023-04-03T04:46:49;1.80;99.90
17154;DHT22;8692;52.164;7.558;2023-04-03T04:49:20;1.80;99.90
17154;DHT22;8692;52.164;7.558;2023-04-03T04:51:50;1.80;99.90
17154;DHT22;8692;52.164;7.558;2023-04-03T04:54:24;1.70;99.90
17154;DHT22;8692;52.164;7.558;2023-04-03T04:56:55;1.70;99.90
17154;DHT22;8692;52.164;7.558;2023-04-03T04:59:24;1.70;99.90
17154;DHT22;8692;52.164;7.558;2023-04-03T05:01:55;1.60;99.90
17154;DHT22;8692;52.164;7.558;2023-04-03T05:04:25;1.60;99.90
17154;DHT22;8692;52.164;7.558;2023-04-03T05:07:01;1.50;99.90
17154;DHT22;8692;52.164;7.558;2023-04-03T05:09:31;1.50;99.90
17154;DHT22;8692;52.164;7.558;2023-04-03T05:12:02;1.50;99.90
17154;DHT22;8692;52.164;7.558;2023-04-03T05:14:37;1.60;99.90
17154;DHT22;8692;52.164;7.558;2023-04-03T05:17:07;1.50;99.90
17154;DHT22;8692;52.164;7.558;2023-04-03T05:19:39;1.50;99.90
17154;DHT22;8692;52.164;7.558;2023-04-03T05:22:10;1.50;99.90
17154;DHT22;8692;52.164;7.558;2023-04-03T05:24:41;1.50;99.90
17154;DHT22;8692;52.164;7.558;2023-04-03T05:27:09;1.40;99.90
17154;DHT22;8692;52.164;7.558;2023-04-03T05:29:42;1.40;99.90
17154;DHT22;8692;52.164;7.558;2023-04-03T05:32:16;1.40;99.90
17154;DHT22;8692;52.164;7.558;2023-04-03T05:34:49;1.40;99.90
17154;DHT22;8692;52.164;7.558;2023-04-03T05:37:20;1.40;99.90
17154;DHT22;8692;52.164;7.558;2023-04-03T05:39:52;1.40;99.90
17154;DHT22;8692;52.164;7.558;2023-04-03T05:42:22;1.40;99.90
17154;DHT22;8692;52.164;7.558;2023-04-03T05:44:50;1.40;99.90
17154;DHT22;8692;52.164;7.558;2023-04-03T05:47:19;1.40;99.90
17154;DHT22;8692;52.164;7.558;2023-04-03T05:49:49;1.40;99.90
17154;DHT22;8692;52.164;7.558;2023-04-03T05:52:22;1.40;99.90
17154;DHT22;8692;52.164;7.558;2023-04-03T05:54:53;1.50;99.90
17154;DHT22;8692;52.164;7.558;2023-04-03T05:57:25;1.60;99.90
17154;DHT22;8692;52.164;7.558;2023-04-03T05:59:54;1.70;99.90
17154;DHT22;8692;52.164;7.558;2023-04-03T06:02:24;1.70;99.90
17154;DHT22;8692;52.164;7.558;2023-04-03T06:04:52;1.70;99.90
17154;DHT22;8692;52.164;7.558;2023-04-03T06:07:24;1.70;99.90
17154;DHT22;8692;52.164;7.558;2023-04-03T06:09:55;1.80;99.90
17154;DHT22;8692;52.164;7.558;2023-04-03T06:12:24;1.80;99.90
17154;DHT22;8692;52.164;7.558;2023-04-03T06:14:52;1.80;99.90
17154;DHT22;8692;52.164;7.558;2023-04-03T06:17:22;1.80;99.90
17154;DHT22;8692;52.164;7.558;2023-04-03T06:19:53;1.90;99.90
17154;DHT22;8692;52.164;7.558;2023-04-03T06:22:24;1.90;99.90
17154;DHT22;8692;52.164;7.558;2023-04-03T06:24:55;2.00;99.90
17154;DHT22;8692;52.164;7.558;2023-04-03T06:27:23;2.00;99.90
17154;DHT22;8692;52.164;7.558;2023-04-03T06:29:54;2.10;99.90
17154;DHT22;8692;52.164;7.558;2023-04-03T06:32:23;2.10;99.90
17154;DHT22;8692;52.164;7.558;2023-04-03T06:34:54;2.20;99.90
17154;DHT22;8692;52.164;7.558;2023-04-03T06:37:25;2.20;99.90
17154;DHT22;8692;52.164;7.558;2023-04-03T06:39:55;2.20;99.90
17154;DHT22;8692;52.164;7.558;2023-04-03T06:42:23;2.30;99.90
17154;DHT22;8692;52.164;7.558;2023-04-03T06:45:00;2.30;99.90
17154;DHT22;8692;52.164;7.558;2023-04-03T06:47:29;2.40;99.90
17154;DHT22;8692;52.164;7.558;2023-04-03T06:50:00;2.40;99.90
17154;DHT22;8692;52.164;7.558;2023-04-03T06:52:29;2.40;99.90
17154;DHT22;8692;52.164;7.558;2023-04-03T06:54:58;2.50;99.90
17154;DHT22;8692;52.164;7.558;2023-04-03T06:57:30;2.60;99.90
17154;DHT22;8692;52.164;7.558;2023-04-03T07:00:00;2.60;99.90
17154;DHT22;8692;52.164;7.558;2023-04-03T07:02:30;2.70;99.90
17154;DHT22;8692;52.164;7.558;2023-04-03T07:05:01;2.70;99.90
17154;DHT22;8692;52.164;7.558;2023-04-03T07:07:32;2.80;99.90
17154;DHT22;8692;52.164;7.558;2023-04-03T07:10:00;2.70;99.90
17154;DHT22;8692;52.164;7.558;2023-04-03T07:12:32;2.80;99.90
17154;DHT22;8692;52.164;7.558;2023-04-03T07:15:00;2.80;99.90
17154;DHT22;8692;52.164;7.558;2023-04-03T07:17:28;2.90;99.90
17154;DHT22;8692;52.164;7.558;2023-04-03T07:19:56;2.90;99.90
17154;DHT22;8692;52.164;7.558;2023-04-03T07:22:24;3.10;99.90
17154;DHT22;8692;52.164;7.558;2023-04-03T07:24:56;3.10;99.90
17154;DHT22;8692;52.164;7.558;2023-04-03T07:27:28;3.10;99.90
17154;DHT22;8692;52.164;7.558;2023-04-03T07:29:56;3.20;99.90
17154;DHT22;8692;52.164;7.558;2023-04-03T07:32:28;3.20;99.90
17154;DHT22;8692;52.164;7.558;2023-04-03T07:34:57;3.20;99.90
17154;DHT22;8692;52.164;7.558;2023-04-03T07:37:28;3.30;99.90
17154;DHT22;8692;52.164;7.558;2023-04-03T07:39:58;3.40;99.90
17154;DHT22;8692;52.164;7.558;2023-04-03T07:42:28;3.40;99.90
17154;DHT22;8692;52.164;7.558;2023-04-03T07:44:56;3.50;99.90
17154;DHT22;8692;52.164;7.558;2023-04-03T07:47:24;3.60;99.90
17154;DHT22;8692;52.164;7.558;2023-04-03T07:49:53;3.60;99.90
17154;DHT22;8692;52.164;7.558;2023-04-03T07:52:21;3.70;99.90
17154;DHT22;8692;52.164;7.558;2023-04-03T07:54:49;3.70;99.90
17154;DHT22;8692;52.164;7.558;2023-04-03T07:57:21;3.80;99.90
17154;DHT22;8692;52.164;7.558;2023-04-03T07:59:49;3.80;99.90
17154;DHT22;8692;52.164;7.558;2023-04-03T08:02:17;3.90;99.90
17154;DHT22;8692;52.164;7.558;2023-04-03T08:04:45;3.90;99.90
17154;DHT22;8692;52.164;7.558;2023-04-03T08:07:16;4.00;99.90
17154;DHT22;8692;52.164;7.558;2023-04-03T08:09:44;4.10;99.90
17154;DHT22;8692;52.164;7.558;2023-04-03T08:12:12;4.10;99.90
17154;DHT22;8692;52.164;7.558;2023-04-03T08:14:43;4.20;99.90
17154;DHT22;8692;52.164;7.558;2023-04-03T08:17:11;4.20;99.90
17154;DHT22;8692;52.164;7.558;2023-04-03T08:19:39;4.30;99.90
17154;DHT22;8692;52.164;7.558;2023-04-03T08:22:07;4.40;97.10
17154;DHT22;8692;52.164;7.558;2023-04-03T08:24:35;4.50;95.60
17154;DHT22;8692;52.164;7.558;2023-04-03T08:27:11;4.50;98.80
17154;DHT22;8692;52.164;7.558;2023-04-03T08:29:39;4.60;97.80
17154;DHT22;8692;52.164;7.558;2023-04-03T08:32:08;4.60;95.60
17154;DHT22;8692;52.164;7.558;2023-04-03T08:34:37;4.70;92.30
17154;DHT22;8692;52.164;7.558;2023-04-03T08:37:06;4.80;93.00
17154;DHT22;8692;52.164;7.558;2023-04-03T08:39:35;4.80;92.70
17154;DHT22;8692;52.164;7.558;2023-04-03T08:42:11;4.90;90.30
17154;DHT22;8692;52.164;7.558;2023-04-03T08:44:47;5.00;85.80
17154;DHT22;8692;52.164;7.558;2023-04-03T08:47:23;5.10;82.50
17154;DHT22;8692;52.164;7.558;2023-04-03T08:49:57;5.20;83.90
17154;DHT22;8692;52.164;7.558;2023-04-03T08:52:34;5.30;80.80
17154;DHT22;8692;52.164;7.558;2023-04-03T08:55:06;5.40;81.90
17154;DHT22;8692;52.164;7.558;2023-04-03T08:57:40;5.40;80.60
17154;DHT22;8692;52.164;7.558;2023-04-03T09:00:17;5.50;81.00
17154;DHT22;8692;52.164;7.558;2023-04-03T09:02:49;5.60;76.60
17154;DHT22;8692;52.164;7.558;2023-04-03T09:05:20;5.60;78.20
17154;DHT22;8692;52.164;7.558;2023-04-03T09:08:04;5.70;76.80
17154;DHT22;8692;52.164;7.558;2023-04-03T09:10:37;5.80;77.60
17154;DHT22;8692;52.164;7.558;2023-04-03T09:13:10;5.90;77.10
17154;DHT22;8692;52.164;7.558;2023-04-03T09:15:44;6.00;76.40
17154;DHT22;8692;52.164;7.558;2023-04-03T09:18:20;6.10;74.50
17154;DHT22;8692;52.164;7.558;2023-04-03T09:20:57;6.20;73.20
17154;DHT22;8692;52.164;7.558;2023-04-03T09:23:36;6.30;75.60
17154;DHT22;8692;52.164;7.558;2023-04-03T09:26:13;6.40;72.40
17154;DHT22;8692;52.164;7.558;2023-04-03T09:28:45;6.50;69.70
17154;DHT22;8692;52.164;7.558;2023-04-03T09:31:20;6.50;68.80
17154;DHT22;8692;52.164;7.558;2023-04-03T09:33:57;6.50;70.60
17154;DHT22;8692;52.164;7.558;2023-04-03T09:36:42;6.50;68.70
17154;DHT22;8692;52.164;7.558;2023-04-03T09:39:14;6.60;68.70
17154;DHT22;8692;52.164;7.558;2023-04-03T09:41:56;6.60;71.00
17154;DHT22;8692;52.164;7.558;2023-04-03T09:44:29;6.70;70.60
17154;DHT22;8692;52.164;7.558;2023-04-03T09:46:58;6.80;70.60
17154;DHT22;8692;52.164;7.558;2023-04-03T09:49:30;6.80;70.70
17154;DHT22;8692;52.164;7.558;2023-04-03T09:52:17;6.90;70.70
17154;DHT22;8692;52.164;7.558;2023-04-03T09:54:48;7.00;72.40
17154;DHT22;8692;52.164;7.558;2023-04-03T09:57:16;7.10;71.20
17154;DHT22;8692;52.164;7.558;2023-04-03T09:59:57;7.20;69.20
17154;DHT22;8692;52.164;7.558;2023-04-03T10:02:36;7.20;72.30
17154;DHT22;8692;52.164;7.558;2023-04-03T10:05:27;7.30;71.00
17154;DHT22;8692;52.164;7.558;2023-04-03T10:08:19;7.30;72.40
17154;DHT22;8692;52.164;7.558;2023-04-03T10:13:33;7.50;73.00
17154;DHT22;8692;52.164;7.558;2023-04-03T10:16:18;7.60;73.60
17154;DHT22;8692;52.164;7.558;2023-04-03T10:19:03;7.70;72.50
17154;DHT22;8692;52.164;7.558;2023-04-03T10:21:40;7.70;74.50
17154;DHT22;8692;52.164;7.558;2023-04-03T10:24:13;7.80;72.90
17154;DHT22;8692;52.164;7.558;2023-04-03T10:26:52;7.80;72.70
17154;DHT22;8692;52.164;7.558;2023-04-03T10:29:38;7.90;72.20
17154;DHT22;8692;52.164;7.558;2023-04-03T10:32:31;7.90;72.30
17154;DHT22;8692;52.164;7.558;2023-04-03T10:35:15;8.00;72.00
17154;DHT22;8692;52.164;7.558;2023-04-03T10:37:59;8.10;70.40
17154;DHT22;8692;52.164;7.558;2023-04-03T10:40:33;8.10;73.20
17154;DHT22;8692;52.164;7.558;2023-04-03T10:43:09;8.20;73.10
17154;DHT22;8692;52.164;7.558;2023-04-03T10:45:51;8.30;70.70
17154;DHT22;8692;52.164;7.558;2023-04-03T10:51:30;8.40;70.70
17154;DHT22;8692;52.164;7.558;2023-04-03T10:54:08;8.20;69.90
17154;DHT22;8692;52.164;7.558;2023-04-03T10:56:41;8.20;68.00
17154;DHT22;8692;52.164;7.558;2023-04-03T10:59:21;8.00;68.10
17154;DHT22;8692;52.164;7.558;2023-04-03T11:01:54;7.90;69.80
17154;DHT22;8692;52.164;7.558;2023-04-03T11:04:25;7.80;69.90
17154;DHT22;8692;52.164;7.558;2023-04-03T11:07:01;7.80;71.80
17154;DHT22;8692;52.164;7.558;2023-04-03T11:09:34;7.80;70.50
17154;DHT22;8692;52.164;7.558;2023-04-03T11:12:10;7.80;69.20
17154;DHT22;8692;52.164;7.558;2023-04-03T11:14:41;7.80;70.90
17154;DHT22;8692;52.164;7.558;2023-04-03T11:17:19;7.90;72.00
17154;DHT22;8692;52.164;7.558;2023-04-03T11:19:59;8.00;72.70
17154;DHT22;8692;52.164;7.558;2023-04-03T11:22:32;8.10;72.40
17154;DHT22;8692;52.164;7.558;2023-04-03T11:25:12;8.30;70.70
17154;DHT22;8692;52.164;7.558;2023-04-03T11:27:49;8.30;69.60
17154;DHT22;8692;52.164;7.558;2023-04-03T11:30:24;8.20;70.30
17154;DHT22;8692;52.164;7.558;2023-04-03T11:33:05;8.20;70.30
17154;DHT22;8692;52.164;7.558;2023-04-03T11:35:38;8.30;68.80
17154;DHT22;8692;52.164;7.558;2023-04-03T11:38:17;8.20;71.80
17154;DHT22;8692;52.164;7.558;2023-04-03T11:40:50;8.30;71.10
17154;DHT22;8692;52.164;7.558;2023-04-03T11:43:24;8.30;69.20
17154;DHT22;8692;52.164;7.558;2023-04-03T11:45:56;8.30;68.90
17154;DHT22;8692;52.164;7.558;2023-04-03T11:48:49;8.30;73.00
17154;DHT22;8692;52.164;7.558;2023-04-03T11:51:42;8.50;71.50
17154;DHT22;8692;52.164;7.558;2023-04-03T11:54:46;8.70;71.50
17154;DHT22;8692;52.164;7.558;2023-04-03T11:57:50;8.80;71.20
17154;DHT22;8692;52.164;7.558;2023-04-03T12:01:02;9.00;72.50
17154;DHT22;8692;52.164;7.558;2023-04-03T12:09:57;9.40;70.70
17154;DHT22;8692;52.164;7.558;2023-04-03T12:12:36;9.40;70.20
17154;DHT22;8692;52.164;7.558;2023-04-03T12:18:56;9.40;70.80
17154;DHT22;8692;52.164;7.558;2023-04-03T12:22:09;9.20;69.20
17154;DHT22;8692;52.164;7.558;2023-04-03T12:24:42;9.20;70.70
17154;DHT22;8692;52.164;7.558;2023-04-03T12:27:25;9.20;71.50
17154;DHT22;8692;52.164;7.558;2023-04-03T12:29:58;9.20;71.60
17154;DHT22;8692;52.164;7.558;2023-04-03T12:32:56;9.30;71.10
17154;DHT22;8692;52.164;7.558;2023-04-03T12:35:46;9.40;67.20
17154;DHT22;8692;52.164;7.558;2023-04-03T12:41:18;9.20;69.50
17154;DHT22;8692;52.164;7.558;2023-04-03T12:43:59;9.30;69.30
17154;DHT22;8692;52.164;7.558;2023-04-03T12:46:35;9.30;69.20
17154;DHT22;8692;52.164;7.558;2023-04-03T12:49:20;9.40;71.10
17154;DHT22;8692;52.164;7.558;2023-04-03T12:51:55;9.60;70.30
17154;DHT22;8692;52.164;7.558;2023-04-03T12:54:29;9.60;69.00
17154;DHT22;8692;52.164;7.558;2023-04-03T12:57:12;9.50;66.60
17154;DHT22;8692;52.164;7.558;2023-04-03T12:59:41;9.40;67.40
17154;DHT22;8692;52.164;7.558;2023-04-03T13:02:21;9.40;70.50
17154;DHT22;8692;52.164;7.558;2023-04-03T13:04:55;9.50;70.20
17154;DHT22;8692;52.164;7.558;2023-04-03T13:07:30;9.60;69.20
17154;DHT22;8692;52.164;7.558;2023-04-03T13:10:13;9.80;68.70
17154;DHT22;8692;52.164;7.558;2023-04-03T13:12:49;9.90;69.20
17154;DHT22;8692;52.164;7.558;2023-04-03T13:15:20;10.00;69.40
17154;DHT22;8692;52.164;7.558;2023-04-03T13:17:50;10.10;67.50
17154;DHT22;8692;52.164;7.558;2023-04-03T13:20:23;10.10;69.30
17154;DHT22;8692;52.164;7.558;2023-04-03T13:23:00;10.00;67.70
17154;DHT22;8692;52.164;7.558;2023-04-03T13:25:36;9.80;66.10
17154;DHT22;8692;52.164;7.558;2023-04-03T13:28:07;9.60;68.70
17154;DHT22;8692;52.164;7.558;2023-04-03T13:30:50;9.60;69.20
17154;DHT22;8692;52.164;7.558;2023-04-03T13:33:24;9.60;68.50
17154;DHT22;8692;52.164;7.558;2023-04-03T13:35:57;9.50;67.10
17154;DHT22;8692;52.164;7.558;2023-04-03T13:38:30;9.50;68.50
17154;DHT22;8692;52.164;7.558;2023-04-03T13:41:04;9.60;68.40
17154;DHT22;8692;52.164;7.558;2023-04-03T13:43:36;9.70;70.60
17154;DHT22;8692;52.164;7.558;2023-04-03T13:46:23;9.90;69.80
17154;DHT22;8692;52.164;7.558;2023-04-03T13:48:54;10.10;67.90
17154;DHT22;8692;52.164;7.558;2023-04-03T13:51:28;10.20;68.70
17154;DHT22;8692;52.164;7.558;2023-04-03T13:53:59;10.40;66.70
17154;DHT22;8692;52.164;7.558;2023-04-03T13:56:31;10.40;65.50
17154;DHT22;8692;52.164;7.558;2023-04-03T13:59:04;10.50;67.90
17154;DHT22;8692;52.164;7.558;2023-04-03T14:01:42;10.60;66.10
17154;DHT22;8692;52.164;7.558;2023-04-03T14:04:14;10.60;65.70
17154;DHT22;8692;52.164;7.558;2023-04-03T14:06:46;10.50;64.10
17154;DHT22;8692;52.164;7.558;2023-04-03T14:09:17;10.40;65.30
17154;DHT22;8692;52.164;7.558;2023-04-03T14:11:46;10.40;66.50
17154;DHT22;8692;52.164;7.558;2023-04-03T14:14:19;10.50;68.00
17154;DHT22;8692;52.164;7.558;2023-04-03T14:16:52;10.60;64.70
17154;DHT22;8692;52.164;7.558;2023-04-03T14:19:23;10.30;64.20
17154;DHT22;8692;52.164;7.558;2023-04-03T14:21:52;10.20;65.60
17154;DHT22;8692;52.164;7.558;2023-04-03T14:24:24;10.20;67.00
17154;DHT22;8692;52.164;7.558;2023-04-03T14:26:55;10.20;66.50
17154;DHT22;8692;52.164;7.558;2023-04-03T14:29:23;10.20;64.90
17154;DHT22;8692;52.164;7.558;2023-04-03T14:31:51;10.20;66.40
17154;DHT22;8692;52.164;7.558;2023-04-03T14:34:40;10.20;64.50
17154;DHT22;8692;52.164;7.558;2023-04-03T14:37:13;10.10;65.00
17154;DHT22;8692;52.164;7.558;2023-04-03T14:39:46;9.90;64.30
17154;DHT22;8692;52.164;7.558;2023-04-03T14:42:17;9.80;64.50
17154;DHT22;8692;52.164;7.558;2023-04-03T14:44:46;9.90;66.50
17154;DHT22;8692;52.164;7.558;2023-04-03T14:47:19;10.10;66.60
17154;DHT22;8692;52.164;7.558;2023-04-03T14:49:58;10.30;65.40
17154;DHT22;8692;52.164;7.558;2023-04-03T14:52:28;10.40;64.80
17154;DHT22;8692;52.164;7.558;2023-04-03T14:54:58;10.50;65.70
17154;DHT22;8692;52.164;7.558;2023-04-03T14:57:29;10.50;64.50
17154;DHT22;8692;52.164;7.558;2023-04-03T14:59:58;10.50;65.40
17154;DHT22;8692;52.164;7.558;2023-04-03T15:02:32;10.40;62.40
17154;DHT22;8692;52.164;7.558;2023-04-03T15:05:05;10.30;63.30
17154;DHT22;8692;52.164;7.558;2023-04-03T15:07:36;10.30;65.30
17154;DHT22;8692;52.164;7.558;2023-04-03T15:10:17;10.40;65.50
17154;DHT22;8692;52.164;7.558;2023-04-03T15:12:48;10.60;63.90
17154;DHT22;8692;52.164;7.558;2023-04-03T15:15:21;10.60;63.40
17154;DHT22;8692;52.164;7.558;2023-04-03T15:17:51;10.60;64.30
17154;DHT22;8692;52.164;7.558;2023-04-03T15:20:23;10.60;62.50
17154;DHT22;8692;52.164;7.558;2023-04-03T15:22:54;10.60;63.30
17154;DHT22;8692;52.164;7.558;2023-04-03T15:25:27;10.60;63.90
17154;DHT22;8692;52.164;7.558;2023-04-03T15:27:55;10.70;64.30
17154;DHT22;8692;52.164;7.558;2023-04-03T15:30:26;10.50;62.60
17154;DHT22;8692;52.164;7.558;2023-04-03T15:32:57;10.40;63.10
17154;DHT22;8692;52.164;7.558;2023-04-03T15:35:25;10.40;63.10
17154;DHT22;8692;52.164;7.558;2023-04-03T15:37:54;10.30;63.50
17154;DHT22;8692;52.164;7.558;2023-04-03T15:40:26;10.20;62.70
17154;DHT22;8692;52.164;7.558;2023-04-03T15:42:54;10.10;62.80
17154;DHT22;8692;52.164;7.558;2023-04-03T15:45:22;10.10;62.10
17154;DHT22;8692;52.164;7.558;2023-04-03T15:47:53;10.00;62.70
17154;DHT22;8692;52.164;7.558;2023-04-03T15:50:24;10.10;63.10
17154;DHT22;8692;52.164;7.558;2023-04-03T15:52:53;10.20;65.50
17154;DHT22;8692;52.164;7.558;2023-04-03T15:55:22;10.30;63.60
17154;DHT22;8692;52.164;7.558;2023-04-03T15:57:52;10.50;64.80
17154;DHT22;8692;52.164;7.558;2023-04-03T16:00:22;10.50;62.90
17154;DHT22;8692;52.164;7.558;2023-04-03T16:02:53;10.40;61.60
17154;DHT22;8692;52.164;7.558;2023-04-03T16:05:25;10.20;62.20
17154;DHT22;8692;52.164;7.558;2023-04-03T16:07:53;10.10;61.50
17154;DHT22;8692;52.164;7.558;2023-04-03T16:10:22;10.00;63.80
17154;DHT22;8692;52.164;7.558;2023-04-03T16:12:54;10.00;63.70
17154;DHT22;8692;52.164;7.558;2023-04-03T16:15:25;10.00;62.70
17154;DHT22;8692;52.164;7.558;2023-04-03T16:17:54;10.00;64.00
17154;DHT22;8692;52.164;7.558;2023-04-03T16:20:22;10.00;62.90
17154;DHT22;8692;52.164;7.558;2023-04-03T16:22:50;10.00;63.70
17154;DHT22;8692;52.164;7.558;2023-04-03T16:25:19;9.90;65.60
17154;DHT22;8692;52.164;7.558;2023-04-03T16:27:47;9.90;65.20
17154;DHT22;8692;52.164;7.558;2023-04-03T16:30:20;10.00;66.00
17154;DHT22;8692;52.164;7.558;2023-04-03T16:32:50;10.00;64.90
17154;DHT22;8692;52.164;7.558;2023-04-03T16:35:25;10.00;63.60
17154;DHT22;8692;52.164;7.558;2023-04-03T16:37:59;9.80;63.40
17154;DHT22;8692;52.164;7.558;2023-04-03T16:40:30;9.70;64.60
17154;DHT22;8692;52.164;7.558;2023-04-03T16:43:05;9.70;63.50
17154;DHT22;8692;52.164;7.558;2023-04-03T16:45:38;9.60;64.30
17154;DHT22;8692;52.164;7.558;2023-04-03T16:48:09;9.60;65.20
17154;DHT22;8692;52.164;7.558;2023-04-03T16:50:40;9.60;64.90
17154;DHT22;8692;52.164;7.558;2023-04-03T16:53:13;9.50;64.40